sensor_id;sensor_type;location;lat;lon;timestamp;P1;durP1;ratioP1;P2;durP2;ratioP2
74080;SDS011;62438;52.228;6.864;2023-01-23T00:01:28;24.33;;;9.60;;
74080;SDS011;62438;52.228;6.864;2023-01-23T00:03:31;24.00;;;10.02;;
74080;SDS011;62438;52.228;6.864;2023-01-23T00:05:33;29.25;;;10.07;;
74080;SDS011;62438;52.228;6.864;2023-01-23T00:07:33;26.30;;;10.40;;
74080;SDS011;62438;52.228;6.864;2023-01-23T00:09:34;24.95;;;9.48;;
74080;SDS011;62438;52.228;6.864;2023-01-23T00:11:34;26.35;;;9.63;;
74080;SDS011;62438;52.228;6.864;2023-01-23T00:13:35;24.33;;;9.18;;
74080;SDS011;62438;52.228;6.864;2023-01-23T00:15:37;24.05;;;9.63;;
74080;SDS011;62438;52.228;6.864;2023-01-23T00:19:41;23.23;;;9.38;;
74080;SDS011;62438;52.228;6.864;2023-01-23T00:21:42;24.52;;;10.07;;
74080;SDS011;62438;52.228;6.864;2023-01-23T00:23:43;22.95;;;9.48;;
74080;SDS011;62438;52.228;6.864;2023-01-23T00:25:46;26.98;;;10.30;;
74080;SDS011;62438;52.228;6.864;2023-01-23T00:27:47;24.48;;;9.77;;
74080;SDS011;62438;52.228;6.864;2023-01-23T00:29:47;22.58;;;10.57;;
74080;SDS011;62438;52.228;6.864;2023-01-23T00:31:48;24.48;;;9.63;;
74080;SDS011;62438;52.228;6.864;2023-01-23T00:33:51;25.63;;;9.18;;
74080;SDS011;62438;52.228;6.864;2023-01-23T00:35:56;25.95;;;9.48;;
74080;SDS011;62438;52.228;6.864;2023-01-23T00:37:56;24.98;;;9.88;;
74080;SDS011;62438;52.228;6.864;2023-01-23T00:39:57;20.77;;;9.45;;
74080;SDS011;62438;52.228;6.864;2023-01-23T00:41:57;25.38;;;10.00;;
74080;SDS011;62438;52.228;6.864;2023-01-23T00:43:58;22.17;;;9.55;;
74080;SDS011;62438;52.228;6.864;2023-01-23T00:45:59;25.83;;;10.15;;
74080;SDS011;62438;52.228;6.864;2023-01-23T00:47:59;24.92;;;10.23;;
74080;SDS011;62438;52.228;6.864;2023-01-23T00:50:00;23.75;;;9.70;;
74080;SDS011;62438;52.228;6.864;2023-01-23T00:52:00;26.08;;;9.73;;
74080;SDS011;62438;52.228;6.864;2023-01-23T00:54:01;28.25;;;10.05;;
74080;SDS011;62438;52.228;6.864;2023-01-23T00:56:02;24.27;;;10.15;;
74080;SDS011;62438;52.228;6.864;2023-01-23T00:58:02;21.50;;;9.38;;
74080;SDS011;62438;52.228;6.864;2023-01-23T01:00:03;21.67;;;9.68;;
74080;SDS011;62438;52.228;6.864;2023-01-23T01:02:04;28.08;;;10.02;;
74080;SDS011;62438;52.228;6.864;2023-01-23T01:04:04;29.33;;;10.52;;
74080;SDS011;62438;52.228;6.864;2023-01-23T01:06:05;23.50;;;9.50;;
74080;SDS011;62438;52.228;6.864;2023-01-23T01:08:05;22.40;;;8.98;;
74080;SDS011;62438;52.228;6.864;2023-01-23T01:10:06;24.08;;;9.68;;
74080;SDS011;62438;52.228;6.864;2023-01-23T01:12:07;26.13;;;8.90;;
74080;SDS011;62438;52.228;6.864;2023-01-23T01:14:07;25.30;;;9.25;;
74080;SDS011;62438;52.228;6.864;2023-01-23T01:16:09;28.77;;;9.52;;
74080;SDS011;62438;52.228;6.864;2023-01-23T01:18:10;27.05;;;10.10;;
74080;SDS011;62438;52.228;6.864;2023-01-23T01:20:10;27.27;;;9.05;;
74080;SDS011;62438;52.228;6.864;2023-01-23T01:22:11;23.17;;;8.68;;
74080;SDS011;62438;52.228;6.864;2023-01-23T01:24:11;27.23;;;9.30;;
74080;SDS011;62438;52.228;6.864;2023-01-23T01:26:12;24.20;;;9.55;;
74080;SDS011;62438;52.228;6.864;2023-01-23T01:28:12;25.83;;;10.13;;
74080;SDS011;62438;52.228;6.864;2023-01-23T01:30:14;23.30;;;9.00;;
74080;SDS011;62438;52.228;6.864;2023-01-23T01:32:15;21.98;;;9.00;;
74080;SDS011;62438;52.228;6.864;2023-01-23T01:34:16;24.90;;;8.73;;
74080;SDS011;62438;52.228;6.864;2023-01-23T01:36:17;23.20;;;8.77;;
74080;SDS011;62438;52.228;6.864;2023-01-23T01:38:19;23.13;;;9.65;;
74080;SDS011;62438;52.228;6.864;2023-01-23T01:40:22;22.05;;;9.70;;
74080;SDS011;62438;52.228;6.864;2023-01-23T01:42:25;25.08;;;8.73;;
74080;SDS011;62438;52.228;6.864;2023-01-23T01:44:27;25.27;;;9.75;;
74080;SDS011;62438;52.228;6.864;2023-01-23T01:46:28;22.92;;;9.63;;
74080;SDS011;62438;52.228;6.864;2023-01-23T01:51:10;25.63;;;9.20;;
74080;SDS011;62438;52.228;6.864;2023-01-23T01:53:13;21.48;;;8.60;;
74080;SDS011;62438;52.228;6.864;2023-01-23T01:55:13;24.75;;;8.93;;
74080;SDS011;62438;52.228;6.864;2023-01-23T01:57:24;22.45;;;9.30;;
74080;SDS011;62438;52.228;6.864;2023-01-23T01:59:33;22.05;;;8.85;;
74080;SDS011;62438;52.228;6.864;2023-01-23T02:01:38;21.35;;;8.73;;
74080;SDS011;62438;52.228;6.864;2023-01-23T02:03:42;21.42;;;8.82;;
74080;SDS011;62438;52.228;6.864;2023-01-23T02:05:44;22.27;;;8.98;;
74080;SDS011;62438;52.228;6.864;2023-01-23T02:10:17;18.58;;;8.25;;
74080;SDS011;62438;52.228;6.864;2023-01-23T02:12:17;20.73;;;9.10;;
74080;SDS011;62438;52.228;6.864;2023-01-23T02:14:18;23.52;;;8.75;;
74080;SDS011;62438;52.228;6.864;2023-01-23T02:16:20;23.45;;;9.20;;
74080;SDS011;62438;52.228;6.864;2023-01-23T02:18:23;22.67;;;9.15;;
74080;SDS011;62438;52.228;6.864;2023-01-23T02:20:26;20.25;;;8.88;;
74080;SDS011;62438;52.228;6.864;2023-01-23T02:24:33;21.65;;;8.13;;
74080;SDS011;62438;52.228;6.864;2023-01-23T02:26:41;20.42;;;8.80;;
74080;SDS011;62438;52.228;6.864;2023-01-23T02:30:45;20.55;;;8.38;;
74080;SDS011;62438;52.228;6.864;2023-01-23T02:32:46;22.92;;;10.10;;
74080;SDS011;62438;52.228;6.864;2023-01-23T02:34:46;23.48;;;9.52;;
74080;SDS011;62438;52.228;6.864;2023-01-23T02:36:47;21.20;;;8.43;;
74080;SDS011;62438;52.228;6.864;2023-01-23T02:38:53;26.88;;;8.68;;
74080;SDS011;62438;52.228;6.864;2023-01-23T02:41:00;22.55;;;8.55;;
74080;SDS011;62438;52.228;6.864;2023-01-23T02:43:02;24.77;;;8.70;;
74080;SDS011;62438;52.228;6.864;2023-01-23T02:45:04;23.50;;;9.13;;
74080;SDS011;62438;52.228;6.864;2023-01-23T02:47:07;24.80;;;9.18;;
74080;SDS011;62438;52.228;6.864;2023-01-23T02:49:11;23.55;;;9.15;;
74080;SDS011;62438;52.228;6.864;2023-01-23T02:51:12;23.63;;;9.25;;
74080;SDS011;62438;52.228;6.864;2023-01-23T02:53:13;28.38;;;8.80;;
74080;SDS011;62438;52.228;6.864;2023-01-23T02:55:13;26.17;;;9.18;;
74080;SDS011;62438;52.228;6.864;2023-01-23T02:57:14;24.77;;;9.30;;
74080;SDS011;62438;52.228;6.864;2023-01-23T02:59:14;23.20;;;9.57;;
74080;SDS011;62438;52.228;6.864;2023-01-23T03:01:33;22.42;;;8.48;;
74080;SDS011;62438;52.228;6.864;2023-01-23T03:03:34;20.35;;;8.68;;
74080;SDS011;62438;52.228;6.864;2023-01-23T03:05:35;24.92;;;9.35;;
74080;SDS011;62438;52.228;6.864;2023-01-23T03:07:35;21.25;;;8.75;;
74080;SDS011;62438;52.228;6.864;2023-01-23T03:09:36;26.40;;;9.10;;
74080;SDS011;62438;52.228;6.864;2023-01-23T03:11:37;24.05;;;9.18;;
74080;SDS011;62438;52.228;6.864;2023-01-23T03:13:38;20.50;;;8.30;;
74080;SDS011;62438;52.228;6.864;2023-01-23T03:15:39;21.95;;;8.50;;
74080;SDS011;62438;52.228;6.864;2023-01-23T03:17:41;20.80;;;8.32;;
74080;SDS011;62438;52.228;6.864;2023-01-23T03:19:41;21.75;;;8.90;;
74080;SDS011;62438;52.228;6.864;2023-01-23T03:21:42;22.08;;;8.43;;
74080;SDS011;62438;52.228;6.864;2023-01-23T03:23:42;24.30;;;8.75;;
74080;SDS011;62438;52.228;6.864;2023-01-23T03:25:45;22.90;;;8.75;;
74080;SDS011;62438;52.228;6.864;2023-01-23T03:27:47;21.80;;;8.55;;
74080;SDS011;62438;52.228;6.864;2023-01-23T03:29:48;24.55;;;10.00;;
74080;SDS011;62438;52.228;6.864;2023-01-23T03:32:07;22.25;;;9.23;;
74080;SDS011;62438;52.228;6.864;2023-01-23T03:34:08;21.48;;;8.55;;
74080;SDS011;62438;52.228;6.864;2023-01-23T03:36:09;22.30;;;10.15;;
74080;SDS011;62438;52.228;6.864;2023-01-23T03:38:11;22.60;;;9.88;;
74080;SDS011;62438;52.228;6.864;2023-01-23T03:40:17;23.85;;;9.50;;
74080;SDS011;62438;52.228;6.864;2023-01-23T03:42:38;20.25;;;8.55;;
74080;SDS011;62438;52.228;6.864;2023-01-23T03:44:38;21.95;;;8.55;;
74080;SDS011;62438;52.228;6.864;2023-01-23T03:46:38;25.70;;;8.75;;
74080;SDS011;62438;52.228;6.864;2023-01-23T03:48:39;21.23;;;9.23;;
74080;SDS011;62438;52.228;6.864;2023-01-23T03:50:39;22.92;;;9.38;;
74080;SDS011;62438;52.228;6.864;2023-01-23T03:52:40;20.67;;;8.85;;
74080;SDS011;62438;52.228;6.864;2023-01-23T03:54:40;20.42;;;8.98;;
74080;SDS011;62438;52.228;6.864;2023-01-23T03:56:41;21.25;;;9.23;;
74080;SDS011;62438;52.228;6.864;2023-01-23T03:58:41;23.52;;;8.95;;
74080;SDS011;62438;52.228;6.864;2023-01-23T04:00:42;20.80;;;9.55;;
74080;SDS011;62438;52.228;6.864;2023-01-23T04:02:42;22.00;;;8.70;;
74080;SDS011;62438;52.228;6.864;2023-01-23T04:04:43;20.92;;;8.88;;
74080;SDS011;62438;52.228;6.864;2023-01-23T04:06:43;21.50;;;9.02;;
74080;SDS011;62438;52.228;6.864;2023-01-23T04:08:43;26.80;;;8.52;;
74080;SDS011;62438;52.228;6.864;2023-01-23T04:10:44;19.95;;;8.13;;
74080;SDS011;62438;52.228;6.864;2023-01-23T04:12:44;22.15;;;8.80;;
74080;SDS011;62438;52.228;6.864;2023-01-23T04:14:45;25.08;;;9.07;;
74080;SDS011;62438;52.228;6.864;2023-01-23T04:16:45;18.48;;;8.90;;
74080;SDS011;62438;52.228;6.864;2023-01-23T04:18:46;23.15;;;9.82;;
74080;SDS011;62438;52.228;6.864;2023-01-23T04:20:46;24.27;;;8.93;;
74080;SDS011;62438;52.228;6.864;2023-01-23T04:22:47;24.15;;;9.40;;
74080;SDS011;62438;52.228;6.864;2023-01-23T04:24:47;24.77;;;8.90;;
74080;SDS011;62438;52.228;6.864;2023-01-23T04:26:47;21.67;;;9.40;;
74080;SDS011;62438;52.228;6.864;2023-01-23T04:28:48;23.67;;;9.07;;
74080;SDS011;62438;52.228;6.864;2023-01-23T04:30:49;24.45;;;9.27;;
74080;SDS011;62438;52.228;6.864;2023-01-23T04:32:50;22.10;;;9.48;;
74080;SDS011;62438;52.228;6.864;2023-01-23T04:34:51;23.73;;;9.50;;
74080;SDS011;62438;52.228;6.864;2023-01-23T04:36:51;22.38;;;9.05;;
74080;SDS011;62438;52.228;6.864;2023-01-23T04:38:51;23.35;;;8.90;;
74080;SDS011;62438;52.228;6.864;2023-01-23T04:40:52;20.40;;;9.52;;
74080;SDS011;62438;52.228;6.864;2023-01-23T04:42:52;21.95;;;9.63;;
74080;SDS011;62438;52.228;6.864;2023-01-23T04:44:53;23.00;;;9.50;;
74080;SDS011;62438;52.228;6.864;2023-01-23T04:46:54;20.23;;;9.15;;
74080;SDS011;62438;52.228;6.864;2023-01-23T04:48:54;27.15;;;10.35;;
74080;SDS011;62438;52.228;6.864;2023-01-23T04:50:54;25.35;;;9.18;;
74080;SDS011;62438;52.228;6.864;2023-01-23T04:52:55;23.17;;;9.80;;
74080;SDS011;62438;52.228;6.864;2023-01-23T04:54:57;23.42;;;9.27;;
74080;SDS011;62438;52.228;6.864;2023-01-23T04:56:57;25.50;;;10.20;;
74080;SDS011;62438;52.228;6.864;2023-01-23T04:58:58;24.95;;;9.88;;
74080;SDS011;62438;52.228;6.864;2023-01-23T05:01:02;25.08;;;10.43;;
74080;SDS011;62438;52.228;6.864;2023-01-23T05:03:04;23.88;;;10.43;;
74080;SDS011;62438;52.228;6.864;2023-01-23T05:05:05;24.02;;;10.43;;
74080;SDS011;62438;52.228;6.864;2023-01-23T05:07:06;25.98;;;10.40;;
74080;SDS011;62438;52.228;6.864;2023-01-23T05:09:08;23.10;;;9.85;;
74080;SDS011;62438;52.228;6.864;2023-01-23T05:11:08;28.70;;;11.23;;
74080;SDS011;62438;52.228;6.864;2023-01-23T05:13:09;23.27;;;9.68;;
74080;SDS011;62438;52.228;6.864;2023-01-23T05:15:09;25.02;;;10.40;;
74080;SDS011;62438;52.228;6.864;2023-01-23T05:17:10;27.40;;;10.18;;
74080;SDS011;62438;52.228;6.864;2023-01-23T05:19:10;26.40;;;10.90;;
74080;SDS011;62438;52.228;6.864;2023-01-23T05:21:11;28.15;;;11.80;;
74080;SDS011;62438;52.228;6.864;2023-01-23T05:23:11;26.15;;;11.05;;
74080;SDS011;62438;52.228;6.864;2023-01-23T05:25:12;24.05;;;9.82;;
74080;SDS011;62438;52.228;6.864;2023-01-23T05:27:12;22.30;;;10.02;;
74080;SDS011;62438;52.228;6.864;2023-01-23T05:29:13;23.65;;;9.85;;
74080;SDS011;62438;52.228;6.864;2023-01-23T05:31:14;23.40;;;9.85;;
74080;SDS011;62438;52.228;6.864;2023-01-23T05:33:14;26.05;;;10.05;;
74080;SDS011;62438;52.228;6.864;2023-01-23T05:35:15;25.98;;;9.35;;
74080;SDS011;62438;52.228;6.864;2023-01-23T05:37:15;20.52;;;9.02;;
74080;SDS011;62438;52.228;6.864;2023-01-23T05:39:16;25.83;;;9.60;;
74080;SDS011;62438;52.228;6.864;2023-01-23T05:41:16;24.33;;;10.25;;
74080;SDS011;62438;52.228;6.864;2023-01-23T05:43:17;23.80;;;9.48;;
74080;SDS011;62438;52.228;6.864;2023-01-23T05:45:17;23.92;;;9.82;;
74080;SDS011;62438;52.228;6.864;2023-01-23T05:47:17;24.17;;;9.98;;
74080;SDS011;62438;52.228;6.864;2023-01-23T05:49:18;24.67;;;9.93;;
74080;SDS011;62438;52.228;6.864;2023-01-23T05:51:18;23.05;;;9.30;;
74080;SDS011;62438;52.228;6.864;2023-01-23T05:53:19;22.77;;;9.52;;
74080;SDS011;62438;52.228;6.864;2023-01-23T05:55:19;22.67;;;10.32;;
74080;SDS011;62438;52.228;6.864;2023-01-23T05:57:20;25.52;;;9.65;;
74080;SDS011;62438;52.228;6.864;2023-01-23T05:59:20;24.35;;;10.60;;
74080;SDS011;62438;52.228;6.864;2023-01-23T06:01:21;23.88;;;11.18;;
74080;SDS011;62438;52.228;6.864;2023-01-23T06:03:22;26.88;;;11.15;;
74080;SDS011;62438;52.228;6.864;2023-01-23T06:05:22;24.27;;;11.20;;
74080;SDS011;62438;52.228;6.864;2023-01-23T06:07:22;20.85;;;9.93;;
74080;SDS011;62438;52.228;6.864;2023-01-23T06:09:23;23.10;;;10.35;;
74080;SDS011;62438;52.228;6.864;2023-01-23T06:11:23;25.05;;;10.45;;
74080;SDS011;62438;52.228;6.864;2023-01-23T06:13:24;26.85;;;10.55;;
74080;SDS011;62438;52.228;6.864;2023-01-23T06:15:25;24.48;;;10.82;;
74080;SDS011;62438;52.228;6.864;2023-01-23T06:17:26;22.58;;;10.05;;
74080;SDS011;62438;52.228;6.864;2023-01-23T06:19:26;22.75;;;10.07;;
74080;SDS011;62438;52.228;6.864;2023-01-23T06:21:27;23.63;;;10.60;;
74080;SDS011;62438;52.228;6.864;2023-01-23T06:23:28;24.73;;;10.25;;
74080;SDS011;62438;52.228;6.864;2023-01-23T06:25:28;22.60;;;10.65;;
74080;SDS011;62438;52.228;6.864;2023-01-23T06:27:29;25.73;;;10.15;;
74080;SDS011;62438;52.228;6.864;2023-01-23T06:29:29;22.30;;;10.40;;
74080;SDS011;62438;52.228;6.864;2023-01-23T06:31:29;22.88;;;8.48;;
74080;SDS011;62438;52.228;6.864;2023-01-23T06:33:31;24.42;;;10.00;;
74080;SDS011;62438;52.228;6.864;2023-01-23T06:35:32;25.33;;;10.48;;
74080;SDS011;62438;52.228;6.864;2023-01-23T06:37:32;23.88;;;10.77;;
74080;SDS011;62438;52.228;6.864;2023-01-23T06:39:32;24.80;;;10.60;;
74080;SDS011;62438;52.228;6.864;2023-01-23T06:41:33;23.50;;;11.35;;
74080;SDS011;62438;52.228;6.864;2023-01-23T06:43:33;24.58;;;10.30;;
74080;SDS011;62438;52.228;6.864;2023-01-23T06:45:33;25.92;;;11.65;;
74080;SDS011;62438;52.228;6.864;2023-01-23T06:47:34;22.30;;;10.27;;
74080;SDS011;62438;52.228;6.864;2023-01-23T06:49:35;24.52;;;11.48;;
74080;SDS011;62438;52.228;6.864;2023-01-23T06:51:35;24.42;;;10.25;;
74080;SDS011;62438;52.228;6.864;2023-01-23T06:53:36;28.55;;;10.68;;
74080;SDS011;62438;52.228;6.864;2023-01-23T06:55:36;25.63;;;9.88;;
74080;SDS011;62438;52.228;6.864;2023-01-23T06:57:37;24.10;;;9.60;;
74080;SDS011;62438;52.228;6.864;2023-01-23T06:59:37;24.48;;;10.88;;
74080;SDS011;62438;52.228;6.864;2023-01-23T07:01:37;29.05;;;10.13;;
74080;SDS011;62438;52.228;6.864;2023-01-23T07:03:38;26.20;;;10.77;;
74080;SDS011;62438;52.228;6.864;2023-01-23T07:05:39;25.73;;;10.32;;
74080;SDS011;62438;52.228;6.864;2023-01-23T07:09:42;22.57;;;8.70;;
74080;SDS011;62438;52.228;6.864;2023-01-23T07:11:43;24.20;;;9.55;;
74080;SDS011;62438;52.228;6.864;2023-01-23T07:13:43;22.13;;;9.60;;
74080;SDS011;62438;52.228;6.864;2023-01-23T07:15:45;23.25;;;9.95;;
74080;SDS011;62438;52.228;6.864;2023-01-23T07:17:46;26.02;;;10.20;;
74080;SDS011;62438;52.228;6.864;2023-01-23T07:19:46;22.98;;;9.57;;
74080;SDS011;62438;52.228;6.864;2023-01-23T07:21:47;21.45;;;9.07;;
74080;SDS011;62438;52.228;6.864;2023-01-23T07:23:48;24.83;;;9.50;;
74080;SDS011;62438;52.228;6.864;2023-01-23T07:25:49;22.08;;;10.25;;
74080;SDS011;62438;52.228;6.864;2023-01-23T07:27:50;23.63;;;10.68;;
74080;SDS011;62438;52.228;6.864;2023-01-23T07:29:51;25.27;;;10.00;;
74080;SDS011;62438;52.228;6.864;2023-01-23T07:31:51;25.23;;;9.73;;
74080;SDS011;62438;52.228;6.864;2023-01-23T07:33:52;24.55;;;10.18;;
74080;SDS011;62438;52.228;6.864;2023-01-23T07:35:52;23.98;;;10.02;;
74080;SDS011;62438;52.228;6.864;2023-01-23T07:37:53;33.67;;;10.30;;
74080;SDS011;62438;52.228;6.864;2023-01-23T07:39:53;23.33;;;9.02;;
74080;SDS011;62438;52.228;6.864;2023-01-23T07:41:54;27.52;;;10.65;;
74080;SDS011;62438;52.228;6.864;2023-01-23T07:43:54;24.35;;;9.40;;
74080;SDS011;62438;52.228;6.864;2023-01-23T07:45:57;26.48;;;10.88;;
74080;SDS011;62438;52.228;6.864;2023-01-23T07:47:58;27.55;;;9.98;;
74080;SDS011;62438;52.228;6.864;2023-01-23T07:49:59;26.05;;;9.73;;
74080;SDS011;62438;52.228;6.864;2023-01-23T07:51:59;23.33;;;9.20;;
74080;SDS011;62438;52.228;6.864;2023-01-23T07:54:00;25.90;;;9.38;;
74080;SDS011;62438;52.228;6.864;2023-01-23T07:56:03;25.40;;;10.02;;
74080;SDS011;62438;52.228;6.864;2023-01-23T07:58:05;26.67;;;9.98;;
74080;SDS011;62438;52.228;6.864;2023-01-23T08:00:05;25.30;;;10.32;;
74080;SDS011;62438;52.228;6.864;2023-01-23T08:02:08;29.08;;;10.30;;
74080;SDS011;62438;52.228;6.864;2023-01-23T08:04:10;21.55;;;9.27;;
74080;SDS011;62438;52.228;6.864;2023-01-23T08:06:10;23.77;;;9.02;;
74080;SDS011;62438;52.228;6.864;2023-01-23T08:08:10;22.10;;;9.60;;
74080;SDS011;62438;52.228;6.864;2023-01-23T08:10:11;21.13;;;10.07;;
74080;SDS011;62438;52.228;6.864;2023-01-23T08:12:12;24.73;;;10.15;;
74080;SDS011;62438;52.228;6.864;2023-01-23T08:14:12;22.17;;;9.05;;
74080;SDS011;62438;52.228;6.864;2023-01-23T08:16:13;28.73;;;11.70;;
74080;SDS011;62438;52.228;6.864;2023-01-23T08:18:13;22.52;;;9.38;;
74080;SDS011;62438;52.228;6.864;2023-01-23T08:20:13;26.05;;;9.93;;
74080;SDS011;62438;52.228;6.864;2023-01-23T08:22:14;26.33;;;9.57;;
74080;SDS011;62438;52.228;6.864;2023-01-23T08:24:14;21.55;;;9.00;;
74080;SDS011;62438;52.228;6.864;2023-01-23T08:26:15;23.75;;;9.05;;
74080;SDS011;62438;52.228;6.864;2023-01-23T08:28:16;25.08;;;8.98;;
74080;SDS011;62438;52.228;6.864;2023-01-23T08:30:17;25.17;;;9.98;;
74080;SDS011;62438;52.228;6.864;2023-01-23T08:32:17;22.02;;;9.38;;
74080;SDS011;62438;52.228;6.864;2023-01-23T08:34:18;22.42;;;9.50;;
74080;SDS011;62438;52.228;6.864;2023-01-23T08:36:18;21.05;;;8.80;;
74080;SDS011;62438;52.228;6.864;2023-01-23T08:38:19;23.00;;;9.18;;
74080;SDS011;62438;52.228;6.864;2023-01-23T08:40:19;23.58;;;9.60;;
74080;SDS011;62438;52.228;6.864;2023-01-23T08:42:20;22.88;;;9.80;;
74080;SDS011;62438;52.228;6.864;2023-01-23T08:44:20;22.27;;;9.13;;
74080;SDS011;62438;52.228;6.864;2023-01-23T08:46:20;23.27;;;9.52;;
74080;SDS011;62438;52.228;6.864;2023-01-23T08:48:21;23.38;;;9.18;;
74080;SDS011;62438;52.228;6.864;2023-01-23T08:50:23;26.42;;;9.30;;
74080;SDS011;62438;52.228;6.864;2023-01-23T08:52:23;22.35;;;9.20;;
74080;SDS011;62438;52.228;6.864;2023-01-23T08:54:24;27.55;;;8.35;;
74080;SDS011;62438;52.228;6.864;2023-01-23T08:56:24;26.90;;;9.68;;
74080;SDS011;62438;52.228;6.864;2023-01-23T08:58:25;21.33;;;9.00;;
74080;SDS011;62438;52.228;6.864;2023-01-23T09:00:26;25.10;;;8.82;;
74080;SDS011;62438;52.228;6.864;2023-01-23T09:02:26;24.30;;;9.30;;
74080;SDS011;62438;52.228;6.864;2023-01-23T09:04:27;23.73;;;10.45;;
74080;SDS011;62438;52.228;6.864;2023-01-23T09:06:27;22.42;;;9.40;;
74080;SDS011;62438;52.228;6.864;2023-01-23T09:08:27;24.83;;;9.57;;
74080;SDS011;62438;52.228;6.864;2023-01-23T09:10:28;21.33;;;8.80;;
74080;SDS011;62438;52.228;6.864;2023-01-23T09:12:28;22.35;;;8.70;;
74080;SDS011;62438;52.228;6.864;2023-01-23T09:14:29;24.52;;;8.98;;
74080;SDS011;62438;52.228;6.864;2023-01-23T09:16:30;22.73;;;9.25;;
74080;SDS011;62438;52.228;6.864;2023-01-23T09:18:30;22.52;;;9.55;;
74080;SDS011;62438;52.228;6.864;2023-01-23T09:20:31;21.35;;;9.65;;
74080;SDS011;62438;52.228;6.864;2023-01-23T09:22:32;26.90;;;9.77;;
74080;SDS011;62438;52.228;6.864;2023-01-23T09:24:32;23.35;;;9.35;;
74080;SDS011;62438;52.228;6.864;2023-01-23T09:26:32;23.65;;;9.10;;
74080;SDS011;62438;52.228;6.864;2023-01-23T09:28:36;25.33;;;9.88;;
74080;SDS011;62438;52.228;6.864;2023-01-23T09:30:39;22.48;;;9.40;;
74080;SDS011;62438;52.228;6.864;2023-01-23T09:32:39;21.08;;;8.98;;
74080;SDS011;62438;52.228;6.864;2023-01-23T09:34:40;23.73;;;9.10;;
74080;SDS011;62438;52.228;6.864;2023-01-23T09:36:40;20.73;;;8.57;;
74080;SDS011;62438;52.228;6.864;2023-01-23T09:38:40;22.00;;;8.57;;
74080;SDS011;62438;52.228;6.864;2023-01-23T09:40:44;21.17;;;8.90;;
74080;SDS011;62438;52.228;6.864;2023-01-23T09:42:48;24.35;;;9.02;;
74080;SDS011;62438;52.228;6.864;2023-01-23T09:44:52;21.73;;;8.80;;
74080;SDS011;62438;52.228;6.864;2023-01-23T09:46:55;19.52;;;8.70;;
74080;SDS011;62438;52.228;6.864;2023-01-23T09:49:02;25.17;;;8.75;;
74080;SDS011;62438;52.228;6.864;2023-01-23T09:53:24;23.17;;;9.63;;
74080;SDS011;62438;52.228;6.864;2023-01-23T09:57:47;21.48;;;8.05;;
74080;SDS011;62438;52.228;6.864;2023-01-23T09:59:55;20.33;;;8.43;;
74080;SDS011;62438;52.228;6.864;2023-01-23T10:02:00;24.27;;;8.85;;
74080;SDS011;62438;52.228;6.864;2023-01-23T10:04:01;23.77;;;9.60;;
74080;SDS011;62438;52.228;6.864;2023-01-23T10:08:28;23.63;;;9.20;;
74080;SDS011;62438;52.228;6.864;2023-01-23T10:15:01;22.83;;;8.88;;
74080;SDS011;62438;52.228;6.864;2023-01-23T10:25:47;21.80;;;8.20;;
74080;SDS011;62438;52.228;6.864;2023-01-23T10:27:49;20.55;;;7.68;;
74080;SDS011;62438;52.228;6.864;2023-01-23T10:30:04;21.40;;;7.93;;
74080;SDS011;62438;52.228;6.864;2023-01-23T10:32:31;22.42;;;8.50;;
74080;SDS011;62438;52.228;6.864;2023-01-23T10:34:47;22.45;;;8.30;;
74080;SDS011;62438;52.228;6.864;2023-01-23T10:37:12;21.75;;;8.55;;
74080;SDS011;62438;52.228;6.864;2023-01-23T10:39:19;20.20;;;7.97;;
74080;SDS011;62438;52.228;6.864;2023-01-23T10:41:25;20.75;;;8.55;;
74080;SDS011;62438;52.228;6.864;2023-01-23T10:43:25;23.10;;;9.45;;
74080;SDS011;62438;52.228;6.864;2023-01-23T10:45:26;21.30;;;7.93;;
74080;SDS011;62438;52.228;6.864;2023-01-23T10:49:57;19.52;;;8.23;;
74080;SDS011;62438;52.228;6.864;2023-01-23T10:51:57;19.60;;;8.88;;
74080;SDS011;62438;52.228;6.864;2023-01-23T10:56:02;20.75;;;8.40;;
74080;SDS011;62438;52.228;6.864;2023-01-23T10:58:02;18.25;;;8.38;;
74080;SDS011;62438;52.228;6.864;2023-01-23T11:00:04;20.42;;;7.95;;
74080;SDS011;62438;52.228;6.864;2023-01-23T11:02:28;20.73;;;7.32;;
74080;SDS011;62438;52.228;6.864;2023-01-23T11:04:30;20.08;;;7.97;;
74080;SDS011;62438;52.228;6.864;2023-01-23T11:06:34;23.35;;;8.52;;
74080;SDS011;62438;52.228;6.864;2023-01-23T11:08:36;19.58;;;7.97;;
74080;SDS011;62438;52.228;6.864;2023-01-23T11:10:37;20.08;;;8.50;;
74080;SDS011;62438;52.228;6.864;2023-01-23T11:12:51;20.63;;;8.38;;
74080;SDS011;62438;52.228;6.864;2023-01-23T11:15:15;19.27;;;7.45;;
74080;SDS011;62438;52.228;6.864;2023-01-23T11:17:23;22.25;;;8.13;;
74080;SDS011;62438;52.228;6.864;2023-01-23T11:19:32;19.90;;;7.85;;
74080;SDS011;62438;52.228;6.864;2023-01-23T11:21:33;19.80;;;8.07;;
74080;SDS011;62438;52.228;6.864;2023-01-23T11:23:36;20.35;;;8.18;;
74080;SDS011;62438;52.228;6.864;2023-01-23T11:25:38;19.70;;;7.97;;
74080;SDS011;62438;52.228;6.864;2023-01-23T11:27:40;20.15;;;7.93;;
74080;SDS011;62438;52.228;6.864;2023-01-23T11:32:10;18.17;;;7.55;;
74080;SDS011;62438;52.228;6.864;2023-01-23T11:34:12;20.92;;;8.15;;
74080;SDS011;62438;52.228;6.864;2023-01-23T11:38:19;20.08;;;7.82;;
74080;SDS011;62438;52.228;6.864;2023-01-23T11:40:24;18.85;;;9.18;;
74080;SDS011;62438;52.228;6.864;2023-01-23T11:42:25;19.50;;;7.55;;
74080;SDS011;62438;52.228;6.864;2023-01-23T11:44:27;18.77;;;8.05;;
74080;SDS011;62438;52.228;6.864;2023-01-23T11:48:35;18.38;;;7.57;;
74080;SDS011;62438;52.228;6.864;2023-01-23T11:50:48;19.67;;;8.35;;
74080;SDS011;62438;52.228;6.864;2023-01-23T12:05:18;18.20;;;7.45;;
74080;SDS011;62438;52.228;6.864;2023-01-23T12:08:02;19.13;;;7.80;;
74080;SDS011;62438;52.228;6.864;2023-01-23T12:10:22;19.42;;;8.20;;
74080;SDS011;62438;52.228;6.864;2023-01-23T12:26:24;21.38;;;8.07;;
74080;SDS011;62438;52.228;6.864;2023-01-23T12:31:17;17.58;;;7.65;;
74080;SDS011;62438;52.228;6.864;2023-01-23T12:34:07;17.02;;;7.15;;
74080;SDS011;62438;52.228;6.864;2023-01-23T12:36:31;18.48;;;7.93;;
74080;SDS011;62438;52.228;6.864;2023-01-23T12:43:45;17.55;;;7.53;;
74080;SDS011;62438;52.228;6.864;2023-01-23T12:45:52;16.55;;;7.93;;
74080;SDS011;62438;52.228;6.864;2023-01-23T12:50:35;16.52;;;8.00;;
74080;SDS011;62438;52.228;6.864;2023-01-23T12:53:00;23.50;;;8.82;;
74080;SDS011;62438;52.228;6.864;2023-01-23T12:55:13;19.70;;;8.35;;
74080;SDS011;62438;52.228;6.864;2023-01-23T12:57:20;17.70;;;7.93;;
74080;SDS011;62438;52.228;6.864;2023-01-23T12:59:56;19.17;;;9.00;;
74080;SDS011;62438;52.228;6.864;2023-01-23T13:04:12;18.58;;;8.68;;
74080;SDS011;62438;52.228;6.864;2023-01-23T13:06:31;19.10;;;8.75;;
74080;SDS011;62438;52.228;6.864;2023-01-23T13:08:53;20.45;;;8.93;;
74080;SDS011;62438;52.228;6.864;2023-01-23T13:13:23;20.17;;;8.75;;
74080;SDS011;62438;52.228;6.864;2023-01-23T13:15:32;21.00;;;9.40;;
74080;SDS011;62438;52.228;6.864;2023-01-23T13:17:34;19.30;;;7.90;;
74080;SDS011;62438;52.228;6.864;2023-01-23T13:19:54;20.52;;;8.70;;
74080;SDS011;62438;52.228;6.864;2023-01-23T13:22:37;18.77;;;8.93;;
74080;SDS011;62438;52.228;6.864;2023-01-23T13:24:50;20.42;;;9.95;;
74080;SDS011;62438;52.228;6.864;2023-01-23T13:29:48;18.58;;;9.10;;
74080;SDS011;62438;52.228;6.864;2023-01-23T13:33:52;20.90;;;9.30;;
74080;SDS011;62438;52.228;6.864;2023-01-23T13:35:53;18.63;;;8.68;;
74080;SDS011;62438;52.228;6.864;2023-01-23T13:37:55;19.20;;;9.40;;